Time;durP1;ratioP1;P1;durP2;ratioP2;P2;SDS_P1;SDS_P2;PMS_P1;PMS_P2;Temp;Humidity;BMP_temperature;BMP_pressure;BME280_temperature;BME280_humidity;BME280_pressure;Samples;Min_cycle;Max_cycle;Signal;HPM_P1;HPM_P2
2023/12/13 00:00:26;;;;;;;69.20;2.92;;;;;;;20.83;55.86;97860.03;7314500;19;130854;-37
2023/12/13 00:02:51;;;;;;;187.07;6.95;;;;;;;20.82;55.64;97859.25;7314857;19;130229;-37
2023/12/13 00:05:16;;;;;;;94.72;4.10;;;;;;;20.82;56.12;97854.03;7314620;19;129396;-38
2023/12/13 00:07:42;;;;;;;35.45;2.22;;;;;;;20.83;55.63;97842.59;7316032;19;128919;-37
2023/12/13 00:10:08;;;;;;;80.75;3.47;;;;;;;20.84;56.12;97846.00;7313094;19;130164;-39
2023/12/13 00:12:33;;;;;;;132.33;5.07;;;;;;;20.81;55.75;97834.09;7315875;19;131355;-40
2023/12/13 00:14:58;;;;;;;111.90;4.60;;;;;;;20.83;55.72;97844.38;7317237;19;129484;-40
2023/12/13 00:17:24;;;;;;;56.30;2.35;;;;;;;20.79;56.24;97838.72;7315680;19;128824;-39
2023/12/13 00:19:49;;;;;;;51.40;2.38;;;;;;;20.79;55.94;97838.72;7315075;19;130148;-40
2023/12/13 00:22:14;;;;;;;164.93;6.07;;;;;;;20.79;56.09;97837.91;7313597;19;129788;-37
2023/12/13 00:24:40;;;;;;;51.73;2.23;;;;;;;20.69;56.27;97814.66;7316353;19;128708;-38
2023/12/13 00:27:05;;;;;;;126.18;5.28;;;;;;;20.78;56.03;97834.47;7315014;19;129234;-40
2023/12/13 00:29:30;;;;;;;34.20;1.92;;;;;;;20.79;56.06;97830.88;7314068;19;130862;-36
2023/12/13 00:31:55;;;;;;;84.18;3.58;;;;;;;20.77;56.44;97814.56;7316562;19;130917;-39
2023/12/13 00:34:21;;;;;;;96.80;3.90;;;;;;;20.79;56.05;97812.59;7316215;19;129067;-41
2023/12/13 00:36:46;;;;;;;91.82;3.88;;;;;;;20.77;56.42;97814.56;7314834;19;129047;-38
2023/12/13 00:39:11;;;;;;;97.05;3.92;;;;;;;20.77;56.03;97808.53;7313277;19;129043;-40
2023/12/13 00:41:37;;;;;;;57.50;2.65;;;;;;;20.76;56.08;97807.72;7315722;19;131172;-39
2023/12/13 00:44:03;;;;;;;71.68;3.35;;;;;;;20.76;56.15;97807.72;7316974;19;128925;-37
2023/12/13 00:46:29;;;;;;;82.87;3.40;;;;;;;20.77;56.47;97808.53;7313587;19;129708;-38
2023/12/13 00:48:54;;;;;;;111.18;4.25;;;;;;;20.65;56.14;97789.88;7313209;19;130103;-38
2023/12/13 00:51:21;;;;;;;101.43;4.20;;;;;;;20.76;56.31;97812.13;7315636;19;130161;-39
2023/12/13 00:53:47;;;;;;;96.00;3.90;;;;;;;20.75;55.79;97798.25;7314765;19;129030;-39
2023/12/13 00:56:13;;;;;;;81.60;3.50;;;;;;;20.72;55.95;97798.63;7314752;19;130906;-38
2023/12/13 00:58:38;;;;;;;148.40;5.57;;;;;;;20.68;56.79;97785.09;7312275;19;130463;-39
2023/12/13 01:01:05;;;;;;;78.03;3.10;;;;;;;20.65;56.67;97789.88;7317254;19;130963;-37
2023/12/13 01:03:30;;;;;;;59.33;2.65;;;;;;;20.63;57.28;97789.22;7315021;19;128887;-37
2023/12/13 01:05:55;;;;;;;85.82;3.97;;;;;;;20.59;57.73;97790.59;7312656;19;129272;-37
2023/12/13 01:08:21;;;;;;;132.73;5.15;;;;;;;20.56;57.27;97790.94;7314239;19;130279;-40
2023/12/13 01:10:46;;;;;;;73.75;3.20;;;;;;;20.54;57.68;97800.75;7308708;19;129248;-36
2023/12/13 01:13:11;;;;;;;75.85;3.20;;;;;;;20.50;57.99;97796.84;7315183;19;129661;-38
2023/12/13 01:15:37;;;;;;;78.35;3.42;;;;;;;20.49;57.44;97805.69;7315034;19;129012;-37
2023/12/13 01:18:03;;;;;;;146.23;5.57;;;;;;;20.46;57.34;97798.22;7314971;19;129558;-41
2023/12/13 01:20:29;;;;;;;84.75;3.47;;;;;;;20.45;57.72;97801.78;7315103;19;130346;-37
2023/12/13 01:22:54;;;;;;;58.95;2.53;;;;;;;20.39;57.78;97794.66;7315322;19;129328;-38
2023/12/13 01:25:19;;;;;;;55.38;2.55;;;;;;;20.41;58.34;97813.59;7315849;19;129800;-37
2023/12/13 01:27:45;;;;;;;116.13;4.68;;;;;;;20.34;57.79;97803.03;7314593;19;129554;-36
2023/12/13 01:30:10;;;;;;;69.88;3.05;;;;;;;20.38;57.86;97804.28;7312475;19;130343;-35
2023/12/13 01:32:36;;;;;;;28.77;1.48;;;;;;;20.36;58.18;97810.69;7313969;19;129527;-36
2023/12/13 01:35:02;;;;;;;110.00;4.43;;;;;;;20.36;57.71;97813.28;7313871;19;129487;-39
2023/12/13 01:37:27;;;;;;;84.10;3.37;;;;;;;20.36;58.09;97811.47;7314884;19;130099;-39
2023/12/13 01:39:56;;;;;;;73.00;3.28;;;;;;;20.36;57.79;97810.69;7311730;19;131048;-39
2023/12/13 01:42:22;;;;;;;80.18;3.13;;;;;;;20.34;58.35;97802.22;7314033;19;128915;-35
2023/12/13 01:44:47;;;;;;;114.55;4.68;;;;;;;20.34;58.00;97804.81;7312633;19;129032;-38
2023/12/13 01:47:13;;;;;;;150.23;6.22;;;;;;;20.32;58.31;97804.19;7314144;19;129225;-39
2023/12/13 01:49:39;;;;;;;63.58;2.83;;;;;;;20.32;58.40;97804.19;7312146;19;130744;-35
2023/12/13 01:52:06;;;;;;;72.27;3.17;;;;;;;20.32;57.94;97802.38;7313672;19;128967;-37
2023/12/13 01:54:32;;;;;;;164.73;6.20;;;;;;;20.20;58.15;97774.25;7312411;19;129112;-38
2023/12/13 01:56:58;;;;;;;75.25;3.10;;;;;;;20.34;58.43;97789.16;7314237;19;130402;-39
2023/12/13 01:59:23;;;;;;;31.63;1.83;;;;;;;20.31;57.92;97789.53;7311836;19;131030;-37
2023/12/13 02:01:52;;;;;;;38.10;1.77;;;;;;;20.18;57.98;97765.81;7312414;19;129428;-37
2023/12/13 02:04:20;;;;;;;208.63;7.93;;;;;;;20.28;58.03;97787.25;7313452;19;129476;-38
2023/12/13 02:06:46;;;;;;;86.72;3.42;;;;;;;20.30;58.04;97782.66;7313626;19;130345;-37
2023/12/13 02:09:11;;;;;;;140.68;5.72;;;;;;;20.30;58.59;97777.44;7309099;19;131144;-40
2023/12/13 02:11:37;;;;;;;48.75;2.28;;;;;;;20.31;58.18;97779.88;7314086;19;129644;-37
2023/12/13 02:14:04;;;;;;;135.47;5.10;;;;;;;20.19;57.92;97757.81;7312288;19;128916;-43
2023/12/13 02:16:32;;;;;;;139.23;5.47;;;;;;;20.29;58.66;97774.03;7312003;19;130153;-41
2023/12/13 02:18:57;;;;;;;60.92;2.80;;;;;;;20.27;58.50;97764.75;7309210;19;131446;-38
2023/12/13 02:21:24;;;;;;;54.17;2.53;;;;;;;20.29;57.95;97761.00;7312721;19;129593;-36
2023/12/13 02:23:51;;;;;;;134.23;5.05;;;;;;;20.30;58.65;97764.38;7311459;19;128887;-36
2023/12/13 02:26:16;;;;;;;69.13;3.05;;;;;;;20.29;58.23;97762.78;7312378;19;129531;-35
2023/12/13 02:28:42;;;;;;;112.88;4.70;;;;;;;20.15;58.46;97742.66;7307698;19;130286;-40
2023/12/13 02:31:09;;;;;;;78.78;3.33;;;;;;;20.28;58.57;97758.56;7312072;19;129351;-40
2023/12/13 02:33:35;;;;;;;141.95;5.28;;;;;;;20.26;58.08;97757.91;7311152;19;130195;-39
2023/12/13 02:36:03;;;;;;;60.58;2.63;;;;;;;20.25;58.06;97756.28;7311789;19;130026;-40
2023/12/13 02:38:29;;;;;;;72.95;3.03;;;;;;;20.26;58.41;97745.66;7310340;19;131599;-40
2023/12/13 02:40:54;;;;;;;31.63;1.88;;;;;;;20.27;58.84;97743.88;7309134;19;130738;-39
2023/12/13 02:43:19;;;;;;;195.55;7.45;;;;;;;20.27;58.66;97739.47;7311781;19;129266;-38
2023/12/13 02:45:45;;;;;;;51.55;2.45;;;;;;;20.26;58.61;97742.25;7311908;19;129283;-36
2023/12/13 02:48:10;;;;;;;86.75;3.55;;;;;;;20.28;58.50;97745.50;7311022;19;130270;-39
2023/12/13 02:50:38;;;;;;;88.30;3.63;;;;;;;20.26;58.16;97743.06;7308074;19;129258;-37
2023/12/13 02:53:04;;;;;;;143.07;5.40;;;;;;;20.29;58.54;97742.72;7310656;19;129278;-39
2023/12/13 02:55:29;;;;;;;59.97;2.90;;;;;;;20.29;58.20;97747.94;7313026;19;129155;-38
2023/12/13 02:57:54;;;;;;;53.67;2.33;;;;;;;20.29;58.73;97737.50;7309979;19;130305;-39
2023/12/13 03:00:20;;;;;;;75.30;3.05;;;;;;;20.28;58.20;97740.28;7309218;19;129768;-38
2023/12/13 03:02:45;;;;;;;161.13;5.82;;;;;;;20.30;58.13;97748.72;7310958;19;129721;-39
2023/12/13 03:05:10;;;;;;;108.32;4.32;;;;;;;20.29;58.36;97741.91;7312223;19;130557;-40
2023/12/13 03:07:39;;;;;;;71.95;3.15;;;;;;;20.29;58.75;97739.28;7311554;19;130391;-38
2023/12/13 03:10:05;;;;;;;84.28;3.58;;;;;;;20.14;58.73;97723.56;7309138;19;128824;-36
2023/12/13 03:12:31;;;;;;;126.97;4.80;;;;;;;20.28;58.49;97741.09;7313099;19;129083;-40
2023/12/13 03:14:56;;;;;;;30.63;1.60;;;;;;;20.28;58.23;97741.09;7310884;19;130111;-37
2023/12/13 03:17:21;;;;;;;123.05;4.97;;;;;;;20.27;58.45;97736.03;7310653;19;130293;-38
2023/12/13 03:19:47;;;;;;;99.90;3.85;;;;;;;20.26;58.91;97739.66;7309254;19;129517;-37
2023/12/13 03:22:12;;;;;;;124.80;4.93;;;;;;;20.28;58.57;97735.88;7312096;19;129948;-40
2023/12/13 03:24:37;;;;;;;106.28;4.22;;;;;;;20.28;58.88;97732.47;7310986;19;129058;-39
2023/12/13 03:27:03;;;;;;;52.53;2.47;;;;;;;20.27;58.80;97723.81;7309803;19;131199;-43
2023/12/13 03:29:28;;;;;;;118.80;4.55;;;;;;;20.29;58.38;97721.03;7308605;19;129099;-37
2023/12/13 03:31:54;;;;;;;82.50;3.38;;;;;;;20.30;58.47;97720.03;7308907;19;129530;-38
2023/12/13 03:34:19;;;;;;;76.82;3.20;;;;;;;20.14;58.91;97694.06;7310795;19;130154;-38
2023/12/13 03:36:44;;;;;;;85.55;3.70;;;;;;;20.28;58.40;97714.19;7308779;19;130397;-38
2023/12/13 03:39:10;;;;;;;179.70;6.93;;;;;;;20.30;58.11;97707.81;7308107;19;130102;-37
2023/12/13 03:41:35;;;;;;;63.88;2.72;;;;;;;20.28;58.60;97712.38;7309706;19;129267;-37
2023/12/13 03:44:00;;;;;;;43.25;2.10;;;;;;;20.28;58.44;97709.78;7310966;19;130680;-39
2023/12/13 03:46:26;;;;;;;76.30;3.13;;;;;;;20.28;58.83;97709.78;7309996;19;130419;-39
2023/12/13 03:48:51;;;;;;;135.82;5.03;;;;;;;20.29;58.72;97713.19;7305009;19;129829;-38
2023/12/13 03:51:17;;;;;;;79.32;3.42;;;;;;;20.29;58.49;97705.38;7307819;19;128680;-38
2023/12/13 03:53:42;;;;;;;71.85;3.05;;;;;;;20.28;58.88;97704.56;7304126;19;129605;-38
2023/12/13 03:56:09;;;;;;;68.50;2.83;;;;;;;20.15;58.86;97686.09;7309234;19;132264;-39
2023/12/13 03:58:35;;;;;;;142.52;5.18;;;;;;;20.28;58.87;97699.34;7309479;19;129244;-38
2023/12/13 04:01:01;;;;;;;29.20;1.67;;;;;;;20.28;58.72;97691.50;7309796;19;130155;-39
2023/12/13 04:03:26;;;;;;;25.90;1.60;;;;;;;20.28;58.55;97698.53;7308633;19;130243;-39
2023/12/13 04:05:52;;;;;;;117.07;4.57;;;;;;;20.28;58.47;97698.53;7309809;19;129598;-39
2023/12/13 04:08:17;;;;;;;108.68;4.20;;;;;;;20.27;58.86;97689.91;7308078;19;129586;-36
2023/12/13 04:10:43;;;;;;;73.60;3.10;;;;;;;20.28;58.60;97696.72;7305773;19;130587;-39
2023/12/13 04:13:08;;;;;;;74.90;3.05;;;;;;;20.26;58.39;97701.31;7305046;19;130893;-38
2023/12/13 04:15:33;;;;;;;96.55;3.75;;;;;;;20.26;58.83;97690.88;7309138;19;130299;-39
2023/12/13 04:17:59;;;;;;;101.15;3.95;;;;;;;20.27;59.05;97700.34;7310548;19;129789;-38
2023/12/13 04:20:24;;;;;;;66.18;2.72;;;;;;;20.13;59.08;97684.63;7309400;19;129978;-37
2023/12/13 04:22:49;;;;;;;65.55;2.88;;;;;;;20.29;59.11;97697.53;7307877;19;129603;-40
2023/12/13 04:25:15;;;;;;;174.02;6.72;;;;;;;20.26;58.83;97692.69;7308337;19;129694;-40
2023/12/13 04:27:40;;;;;;;54.28;2.30;;;;;;;20.27;58.45;97691.69;7310544;19;129532;-37
2023/12/13 04:30:06;;;;;;;35.53;1.90;;;;;;;20.27;58.74;97682.06;7307503;19;129165;-39
2023/12/13 04:32:31;;;;;;;87.57;3.43;;;;;;;20.29;58.52;97684.50;7309258;19;130211;-38
2023/12/13 04:34:58;;;;;;;136.55;5.18;;;;;;;20.24;58.34;97676.38;7309384;19;130990;-36
2023/12/13 04:37:24;;;;;;;113.20;4.68;;;;;;;20.29;58.58;97680.09;7310049;19;130189;-38
2023/12/13 04:39:49;;;;;;;62.40;2.63;;;;;;;20.28;58.83;97677.66;7306932;19;129079;-39
2023/12/13 04:42:14;;;;;;;88.05;3.55;;;;;;;20.26;58.76;97680.44;7309384;19;129533;-39
2023/12/13 04:44:40;;;;;;;107.57;4.15;;;;;;;20.18;58.35;97677.09;7307117;19;129940;-38
2023/12/13 04:47:05;;;;;;;75.78;3.15;;;;;;;20.13;58.74;97676.78;7315911;19;129562;-39
2023/12/13 04:49:31;;;;;;;48.90;2.17;;;;;;;20.06;59.61;97668.03;7314317;19;130191;-37
2023/12/13 04:51:56;;;;;;;48.30;2.17;;;;;;;20.06;58.75;97681.09;7315525;19;129123;-39
2023/12/13 04:54:22;;;;;;;171.45;6.40;;;;;;;20.01;59.09;97672.97;7315618;19;130617;-37
2023/12/13 04:56:47;;;;;;;54.25;2.53;;;;;;;20.05;58.58;97672.44;7314379;19;129189;-38
2023/12/13 04:59:13;;;;;;;130.18;5.30;;;;;;;20.07;58.68;97665.25;7308123;19;128857;-40
2023/12/13 05:01:38;;;;;;;259.40;10.23;;;;;;;20.16;58.58;97673.84;7309580;19;130308;-37
2023/12/13 05:04:03;;;;;;;56.60;2.38;;;;;;;20.23;58.10;97677.38;7312121;19;129012;-36
2023/12/13 05:06:29;;;;;;;101.82;4.10;;;;;;;20.27;58.62;97676.03;7314118;19;129431;-37
2023/12/13 05:08:54;;;;;;;87.53;3.50;;;;;;;20.29;58.25;97674.06;7308340;19;130131;-40
2023/12/13 05:11:20;;;;;;;151.38;5.63;;;;;;;20.34;58.35;97674.34;7311202;19;129944;-38
2023/12/13 05:13:45;;;;;;;57.10;2.58;;;;;;;20.34;57.73;97676.94;7314804;19;130138;-36
2023/12/13 05:16:11;;;;;;;50.17;2.38;;;;;;;20.36;58.42;97686.22;7314127;19;128992;-39
2023/12/13 05:18:36;;;;;;;80.95;3.42;;;;;;;20.37;58.23;97676.59;7310805;19;129670;-38
2023/12/13 05:21:02;;;;;;;168.70;6.43;;;;;;;20.37;57.76;97679.19;7311740;19;130283;-37
2023/12/13 05:23:28;;;;;;;155.57;6.28;;;;;;;20.36;58.14;97669.75;7313700;19;129737;-39
2023/12/13 05:25:54;;;;;;;102.05;4.32;;;;;;;20.34;57.99;97669.94;7309061;19;129585;-37
2023/12/13 05:28:19;;;;;;;77.82;3.08;;;;;;;20.32;58.12;97673.69;7310344;19;130511;-40
2023/12/13 05:30:45;;;;;;;116.95;4.43;;;;;;;20.31;57.86;97670.28;7310742;19;130032;-40
2023/12/13 05:33:10;;;;;;;51.33;2.28;;;;;;;20.28;58.34;97677.66;7315128;19;131236;-36
2023/12/13 05:35:36;;;;;;;73.97;3.30;;;;;;;20.26;58.04;97680.44;7313885;19;129464;-37
2023/12/13 05:38:01;;;;;;;92.63;3.67;;;;;;;20.25;57.84;97678.81;7313516;19;130076;-40
2023/12/13 05:40:26;;;;;;;139.18;5.20;;;;;;;20.25;58.61;97678.00;7313483;19;130450;-36
2023/12/13 05:42:52;;;;;;;50.33;2.40;;;;;;;20.19;58.51;97669.09;7313403;19;131838;-40
2023/12/13 05:45:17;;;;;;;59.67;2.90;;;;;;;20.16;58.75;97668.63;7313363;19;128989;-38
2023/12/13 05:47:42;;;;;;;143.18;5.45;;;;;;;20.16;58.53;97673.84;7309070;19;129571;-40
2023/12/13 05:50:08;;;;;;;84.20;3.40;;;;;;;20.11;58.94;97665.72;7310657;19;130216;-39
2023/12/13 05:52:33;;;;;;;84.72;3.50;;;;;;;20.03;58.50;97653.53;7310257;19;130433;-39
2023/12/13 05:54:59;;;;;;;68.13;2.78;;;;;;;20.11;59.13;97670.94;7313007;19;129194;-37
2023/12/13 05:57:25;;;;;;;203.80;7.43;;;;;;;20.10;58.86;97674.50;7311084;19;128897;-37
2023/12/13 05:59:50;;;;;;;153.00;6.00;;;;;;;20.10;59.29;97675.34;7307760;19;131124;-33
2023/12/13 06:02:15;;;;;;;115.97;5.55;;;;;;;20.09;59.20;97680.72;7308030;19;130305;-37
2023/12/13 06:04:42;;;;;;;64.35;2.80;;;;;;;20.12;59.18;97682.97;7311021;19;129524;-38
2023/12/13 06:07:09;;;;;;;245.25;9.13;;;;;;;20.12;58.45;97680.38;7309170;19;129701;-34
2023/12/13 06:09:34;;;;;;;52.10;2.43;;;;;;;20.09;59.28;97678.13;7303292;19;130195;-41
2023/12/13 06:12:00;;;;;;;70.40;2.80;;;;;;;19.95;59.01;97660.66;7309522;19;129789;-39
2023/12/13 06:14:25;;;;;;;53.95;2.40;;;;;;;20.08;59.07;97677.31;7307330;19;130692;-39
2023/12/13 06:16:50;;;;;;;152.57;5.65;;;;;;;20.08;58.95;97686.94;7309165;19;130982;-39
2023/12/13 06:19:16;;;;;;;111.32;4.13;;;;;;;20.08;58.87;97692.16;7309955;19;130088;-39
2023/12/13 06:21:41;;;;;;;43.63;2.08;;;;;;;20.06;59.36;97683.69;7310368;19;132254;-37
2023/12/13 06:24:06;;;;;;;88.15;3.55;;;;;;;20.05;59.10;97688.09;7311765;19;129351;-38
2023/12/13 06:26:32;;;;;;;124.68;4.72;;;;;;;20.06;59.36;97686.31;7307786;19;131192;-39
2023/12/13 06:28:57;;;;;;;38.40;1.92;;;;;;;20.07;58.79;97685.31;7310395;19;131096;-35
2023/12/13 06:31:23;;;;;;;97.25;3.80;;;;;;;20.07;59.21;97687.91;7304580;19;132979;-38
2023/12/13 06:33:48;;;;;;;79.95;3.28;;;;;;;20.06;58.75;97686.31;7310292;19;128884;-41
2023/12/13 06:36:13;;;;;;;200.98;7.30;;;;;;;20.07;59.07;97688.72;7309310;19;129125;-35
2023/12/13 06:38:39;;;;;;;111.30;4.25;;;;;;;20.10;59.06;97679.72;7299340;19;129211;-40
2023/12/13 06:41:04;;;;;;;127.18;5.25;;;;;;;20.10;59.10;97684.94;7306812;19;130100;-39
2023/12/13 06:43:29;;;;;;;110.63;4.25;;;;;;;20.13;59.37;97689.84;7309683;19;129790;-38
2023/12/13 06:45:55;;;;;;;174.98;6.72;;;;;;;20.11;59.35;97683.97;7303621;19;130335;-35
2023/12/13 06:48:20;;;;;;;108.88;4.20;;;;;;;20.14;59.15;97696.66;7299540;19;130417;-39
2023/12/13 06:50:46;;;;;;;21.70;1.85;;;;;;;20.14;59.77;97688.84;7309547;19;130126;-37
2023/12/13 06:53:13;;;;;;;166.20;6.10;;;;;;;20.26;57.91;97700.50;7310921;19;129834;-37
2023/12/13 06:55:41;;;;;;;49.25;2.35;;;;;;;20.23;58.01;97698.25;7306192;19;129710;-39
2023/12/13 06:58:06;;;;;;;86.10;3.70;;;;;;;20.18;58.13;97703.19;7306570;19;129034;-39
2023/12/13 07:00:32;;;;;;;96.30;4.00;;;;;;;20.12;58.02;97706.47;7306670;19;129699;-36
2023/12/13 07:02:57;;;;;;;131.18;5.22;;;;;;;20.13;58.98;97701.06;7310230;19;129824;-36
2023/12/13 07:05:22;;;;;;;106.53;4.35;;;;;;;20.12;59.12;97698.63;7311680;19;128709;-39
2023/12/13 07:07:48;;;;;;;150.65;6.45;;;;;;;20.14;59.06;97697.47;7305850;19;130086;-40
2023/12/13 07:10:13;;;;;;;57.92;2.75;;;;;;;20.14;58.57;97699.28;7304449;19;131655;-40
2023/12/13 07:12:40;;;;;;;155.27;5.80;;;;;;;20.14;58.54;97701.88;7309823;19;130729;-39
2023/12/13 07:15:06;;;;;;;;;;;;;;;20.17;60.11;97707.59;7313477;19;128966;-40
2023/12/13 07:17:31;;;;;;;70.05;3.03;;;;;;;20.01;59.18;97673.81;7309209;19;130579;-40
2023/12/13 07:19:57;;;;;;;66.20;3.00;;;;;;;20.17;58.86;97706.78;7307929;19;130374;-38
2023/12/13 07:22:22;;;;;;;138.85;5.28;;;;;;;20.18;58.68;97705.81;7310259;19;128999;-37
2023/12/13 07:24:47;;;;;;;55.55;2.65;;;;;;;20.20;58.65;97701.19;7310582;19;128934;-40
2023/12/13 07:27:13;;;;;;;123.97;5.50;;;;;;;20.21;59.16;97710.66;7309482;19;129525;-36
2023/12/13 07:29:42;;;;;;;189.82;7.30;;;;;;;20.15;58.91;97709.56;7306786;19;130349;-40
2023/12/13 07:32:08;;;;;;;52.20;2.60;;;;;;;20.13;58.96;97700.28;7311121;19;129210;-38
2023/12/13 07:34:33;;;;;;;128.43;5.28;;;;;;;20.02;58.86;97698.06;7309613;19;129652;-39
2023/12/13 07:37:00;;;;;;;34.25;1.80;;;;;;;20.06;58.83;97705.38;7310762;19;129759;-39
2023/12/13 07:39:27;;;;;;;103.78;4.10;;;;;;;20.02;58.70;97708.50;7307886;19;130614;-39
2023/12/13 07:41:54;;;;;;;108.18;4.88;;;;;;;20.03;58.92;97704.91;7310038;19;129612;-37
2023/12/13 07:44:19;;;;;;;87.20;3.72;;;;;;;19.99;59.11;97704.47;7309176;19;129174;-37
2023/12/13 07:46:44;;;;;;;75.38;3.53;;;;;;;19.98;59.16;97699.41;7309171;19;130749;-39
2023/12/13 07:49:09;;;;;;;125.78;4.95;;;;;;;19.97;59.32;97710.81;7309372;19;129959;-38
2023/12/13 07:51:35;;;;;;;73.93;3.35;;;;;;;19.97;59.13;97711.63;7308885;19;129129;-38
2023/12/13 07:54:01;;;;;;;50.33;2.58;;;;;;;19.96;59.31;97710.03;7312188;19;129166;-40
2023/12/13 07:56:30;;;;;;;95.78;3.88;;;;;;;19.96;59.09;97715.25;7308135;19;130913;-37
2023/12/13 07:58:56;;;;;;;69.80;3.10;;;;;;;19.95;58.75;97713.59;7308792;19;130543;-38
2023/12/13 08:01:22;;;;;;;98.07;3.97;;;;;;;19.97;58.92;97705.59;7310638;19;129112;-36
2023/12/13 08:03:48;;;;;;;70.38;3.22;;;;;;;19.96;59.26;97709.22;7310142;19;129117;-38
2023/12/13 08:06:13;;;;;;;52.85;2.38;;;;;;;19.93;58.91;97709.56;7308882;19;131147;-40
2023/12/13 08:08:40;;;;;;;101.72;4.13;;;;;;;19.96;58.92;97711.81;7305289;19;130376;-40
2023/12/13 08:11:06;;;;;;;74.82;3.22;;;;;;;19.99;59.18;97714.06;7309456;19;128995;-37
2023/12/13 08:13:32;;;;;;;71.93;3.00;;;;;;;19.98;58.69;97712.47;7309569;19;129813;-39
2023/12/13 08:15:57;;;;;;;117.50;4.85;;;;;;;19.98;59.23;97709.84;7308094;19;130314;-38
2023/12/13 08:18:23;;;;;;;177.07;6.60;;;;;;;19.99;59.50;97714.06;7307667;19;132067;-34
2023/12/13 08:20:48;;;;;;;54.22;2.25;;;;;;;19.99;59.15;97708.84;7312349;19;129017;-37
2023/12/13 08:23:13;;;;;;;48.55;2.30;;;;;;;20.01;58.92;97706.88;7318025;19;129293;-39
2023/12/13 08:25:39;;;;;;;46.08;2.22;;;;;;;19.99;59.23;97708.84;7315560;19;130081;-39
2023/12/13 08:28:04;;;;;;;118.13;4.70;;;;;;;20.01;58.93;97712.09;7316265;19;129482;-37
2023/12/13 08:30:29;;;;;;;139.45;5.57;;;;;;;19.99;59.31;97708.84;7314819;19;130396;-38
2023/12/13 08:32:55;;;;;;;100.00;4.18;;;;;;;19.95;58.74;97708.38;7313757;19;130585;-37
2023/12/13 08:35:20;;;;;;;80.07;3.33;;;;;;;20.00;59.29;97723.53;7316222;19;129273;-38
2023/12/13 08:37:45;;;;;;;123.28;4.85;;;;;;;19.98;59.05;97718.47;7315660;19;130206;-38
2023/12/13 08:40:11;;;;;;;46.97;2.28;;;;;;;20.01;59.32;97717.31;7315702;19;128890;-40
2023/12/13 08:42:37;;;;;;;79.07;3.42;;;;;;;19.99;59.14;97719.28;7314390;19;129392;-38
2023/12/13 08:45:03;;;;;;;87.63;3.67;;;;;;;19.98;58.75;97712.47;7316033;19;131029;-40
2023/12/13 08:47:29;;;;;;;134.70;5.30;;;;;;;19.96;59.20;97714.41;7313556;19;131141;-38
2023/12/13 08:49:54;;;;;;;27.15;1.45;;;;;;;19.94;58.96;97709.38;7314539;19;129043;-39
2023/12/13 08:52:20;;;;;;;75.97;3.05;;;;;;;19.95;59.00;97712.81;7315490;19;129003;-40
2023/12/13 08:54:46;;;;;;;103.87;4.07;;;;;;;19.93;59.04;97714.78;7313946;19;130080;-38
2023/12/13 08:57:11;;;;;;;107.38;4.40;;;;;;;19.94;59.53;97716.38;7315021;19;130324;-39
2023/12/13 08:59:37;;;;;;;90.80;3.78;;;;;;;19.83;59.57;97694.16;7314703;19;129423;-38
2023/12/13 09:02:02;;;;;;;128.63;5.35;;;;;;;19.94;59.49;97716.38;7314424;19;128953;-39
2023/12/13 09:04:28;;;;;;;151.43;5.85;;;;;;;19.94;59.71;97716.38;7313122;19;130802;-39
2023/12/13 09:06:53;;;;;;;62.88;2.88;;;;;;;19.91;59.61;97711.53;7316837;19;130671;-37
2023/12/13 09:09:19;;;;;;;16.27;1.20;;;;;;;19.93;59.66;97714.78;7312259;19;128853;-38
2023/12/13 09:11:46;;;;;;;66.00;2.97;;;;;;;19.92;58.99;97713.13;7312863;19;129601;-40
2023/12/13 09:14:11;;;;;;;;;;;;;;;19.92;59.10;97711.34;7316255;19;130105;-39
2023/12/13 09:16:37;;;;;;;110.15;4.63;;;;;;;19.95;58.98;97718.03;7313346;19;131161;-36
2023/12/13 09:19:02;;;;;;;20.77;1.38;;;;;;;19.81;59.27;97696.13;7312578;19;129115;-39
2023/12/13 09:21:27;;;;;;;51.28;2.22;;;;;;;19.86;59.01;97698.19;7316459;19;129368;-38
2023/12/13 09:23:53;;;;;;;111.90;4.30;;;;;;;19.92;59.56;97713.13;7314136;19;130870;-36
2023/12/13 09:26:18;;;;;;;67.40;2.90;;;;;;;19.93;59.48;97710.34;7315497;19;131774;-39
2023/12/13 09:28:44;;;;;;;74.93;3.40;;;;;;;19.91;59.51;97717.56;7311543;19;129171;-40
2023/12/13 09:31:11;;;;;;;138.10;5.20;;;;;;;19.90;59.09;97707.31;7311418;19;129465;-38
2023/12/13 09:33:37;;;;;;;;;;;;;;;19.91;59.50;97711.53;7313127;19;131730;-38
2023/12/13 09:36:03;;;;;;;34.63;1.73;;;;;;;19.91;59.85;97714.94;7313973;19;129275;-39
2023/12/13 09:38:29;;;;;;;77.70;3.13;;;;;;;19.87;59.68;97712.84;7308777;19;130526;-38
2023/12/13 09:40:55;;;;;;;84.70;3.33;;;;;;;19.90;59.20;97717.75;7314484;19;129573;-40
2023/12/13 09:43:23;;;;;;;91.30;3.67;;;;;;;19.87;59.30;97712.84;7315199;19;129513;-38
2023/12/13 09:45:51;;;;;;;66.78;2.90;;;;;;;19.73;59.62;97697.97;7314411;19;129685;-38
2023/12/13 09:48:22;;;;;;;57.35;2.45;;;;;;;19.90;59.38;97720.34;7314466;19;129056;-39
2023/12/13 09:50:52;;;;;;;42.65;2.10;;;;;;;19.88;59.78;97722.31;7312004;19;129591;-39
2023/12/13 09:53:20;;;;;;;121.38;4.60;;;;;;;19.87;59.21;97726.69;7313984;19;130246;-37
2023/12/13 09:55:47;;;;;;;85.55;3.63;;;;;;;19.86;59.19;97724.28;7313814;19;131028;-38
2023/12/13 09:58:12;;;;;;;67.68;2.80;;;;;;;19.87;59.91;97731.09;7313690;19;129278;-39
2023/12/13 10:00:38;;;;;;;122.50;5.03;;;;;;;19.86;59.80;97730.31;7313328;19;129265;-38
2023/12/13 10:03:04;;;;;;;144.45;5.47;;;;;;;19.86;59.21;97725.09;7312262;19;130463;-40
2023/12/13 10:05:31;;;;;;;53.45;2.55;;;;;;;19.71;59.40;97703.34;7315252;19;130532;-34
2023/12/13 10:08:01;;;;;;;136.18;5.35;;;;;;;19.86;59.95;97727.69;7312504;19;129194;-40
2023/12/13 10:10:35;;;;;;;53.33;2.45;;;;;;;19.85;59.26;97720.06;7311543;19;129054;-39
2023/12/13 10:13:02;;;;;;;126.28;4.93;;;;;;;19.86;59.35;97724.28;7312720;19;130309;-39
2023/12/13 10:15:33;;;;;;;;;;;;;;;19.85;59.72;97722.66;7312354;19;129655;-37
2023/12/13 10:17:59;;;;;;;64.10;2.65;;;;;;;19.86;59.86;97729.50;7313869;19;129326;-36
2023/12/13 10:20:26;;;;;;;57.88;2.42;;;;;;;19.86;59.60;97732.09;7310751;19;129718;-39
2023/12/13 10:22:52;;;;;;;58.90;2.53;;;;;;;19.84;59.55;97721.84;7313469;19;130884;-39
2023/12/13 10:25:22;;;;;;;116.00;4.57;;;;;;;19.84;59.71;97721.84;7312756;19;130585;-37
2023/12/13 10:27:50;;;;;;;54.60;2.45;;;;;;;19.85;59.45;97722.66;7314177;19;129588;-38
2023/12/13 10:30:18;;;;;;;50.95;2.20;;;;;;;19.84;59.82;97716.63;7310462;19;130479;-40
2023/12/13 10:32:43;;;;;;;79.53;3.22;;;;;;;19.84;59.93;97721.84;7312368;19;129540;-39
2023/12/13 10:35:09;;;;;;;183.38;6.57;;;;;;;19.84;59.44;97721.03;7309223;19;129562;-37
2023/12/13 10:37:35;;;;;;;70.38;3.00;;;;;;;19.83;59.70;97708.97;7313661;19;129329;-38
2023/12/13 10:40:00;;;;;;;68.97;2.80;;;;;;;19.82;59.56;97718.59;7311388;19;129430;-38
2023/12/13 10:42:26;;;;;;;19.60;1.27;;;;;;;19.71;59.69;97697.31;7312615;19;130086;-39
2023/12/13 10:44:53;;;;;;;128.30;4.67;;;;;;;19.68;59.46;97693.28;7311325;19;130521;-38
2023/12/13 10:47:26;;;;;;;152.57;6.35;;;;;;;19.69;59.45;97702.72;7311033;19;129091;-38
2023/12/13 10:49:54;;;;;;;56.10;2.55;;;;;;;19.80;59.31;97709.34;7312210;19;129739;-39
2023/12/13 10:52:21;;;;;;;90.20;3.78;;;;;;;19.83;60.00;97717.63;7310620;19;130219;-39
2023/12/13 10:54:52;;;;;;;132.93;5.20;;;;;;;19.83;59.55;97719.41;7312443;19;131183;-40
2023/12/13 10:57:18;;;;;;;181.00;6.88;;;;;;;19.81;59.41;97718.75;7312881;19;129943;-38
2023/12/13 10:59:45;;;;;;;34.58;1.75;;;;;;;19.81;60.17;97716.97;7311181;19;129166;-39
2023/12/13 11:02:15;;;;;;;18.25;1.10;;;;;;;19.83;59.82;97716.81;7311631;19;130326;-39
2023/12/13 11:04:43;;;;;;;91.90;3.67;;;;;;;19.80;60.16;97712.72;7312339;19;131496;-39
2023/12/13 11:07:09;;;;;;;143.50;5.55;;;;;;;19.68;59.52;97695.06;7311079;19;129657;-39